Time;durP1;ratioP1;P1;durP2;ratioP2;P2;SDS_P1;SDS_P2;PMS_P1;PMS_P2;Temp;Humidity;BMP_temperature;BMP_pressure;BME280_temperature;BME280_humidity;BME280_pressure;Samples;Min_cycle;Max_cycle;Signal;HPM_P1;HPM_P2
2022/12/02 00:01:57;;;;;;;13.15;8.18;;;;;;;5.96;100.00;100358.53;5013706;28;20045;-70
2022/12/02 00:04:25;;;;;;;9.15;6.80;;;;;;;5.86;100.00;100349.31;5013753;28;20113;-70
2022/12/02 00:06:52;;;;;;;7.45;6.20;;;;;;;5.86;100.00;100371.19;5013639;28;20212;-70
2022/12/02 00:09:26;;;;;;;7.45;6.07;;;;;;;6.23;100.00;100403.03;5011918;28;20063;-70
2022/12/02 00:11:52;;;;;;;6.30;5.22;;;;;;;6.31;100.00;100416.47;5012620;28;20034;-71
2022/12/02 00:14:29;;;;;;;5.60;4.60;;;;;;;5.64;100.00;100334.22;5011821;28;20026;-69
2022/12/02 00:16:55;;;;;;;5.45;4.30;;;;;;;6.30;100.00;100431.63;5013663;28;20128;-70
2022/12/02 00:19:22;;;;;;;6.68;5.55;;;;;;;6.24;100.00;100408.94;5012143;28;20026;-70
2022/12/02 00:21:49;;;;;;;5.88;5.10;;;;;;;6.23;100.00;100425.75;5013125;28;20026;-70
2022/12/02 00:24:15;;;;;;;5.55;4.35;;;;;;;6.27;100.00;100397.13;5013026;28;20388;-70
2022/12/02 00:26:41;;;;;;;6.20;4.47;;;;;;;6.38;100.00;100425.69;5011932;28;20515;-69
2022/12/02 00:29:07;;;;;;;8.65;4.63;;;;;;;5.84;100.00;100340.09;5013201;28;20029;-70
2022/12/02 00:31:32;;;;;;;6.72;5.57;;;;;;;6.13;100.00;100397.19;5012372;28;20511;-70
2022/12/02 00:33:59;;;;;;;4.20;3.45;;;;;;;5.98;100.00;100424.97;5012882;28;20029;-70
2022/12/02 00:36:25;;;;;;;3.40;2.90;;;;;;;6.16;100.00;100431.63;5011769;28;20095;-70
2022/12/02 00:38:51;;;;;;;5.25;3.75;;;;;;;6.21;100.00;100432.50;5013135;28;20046;-71
2022/12/02 00:41:16;;;;;;;7.00;5.32;;;;;;;6.37;100.00;100431.59;5011245;28;20540;-70
2022/12/02 00:46:32;;;;;;;8.80;6.40;;;;;;;6.06;100.00;100380.38;5012973;28;20064;-70
2022/12/02 00:48:59;;;;;;;9.48;6.53;;;;;;;6.38;100.00;100434.97;5011410;28;20041;-70
2022/12/02 00:51:24;;;;;;;6.05;4.20;;;;;;;6.02;100.00;100375.34;5011188;28;20034;-70
2022/12/02 00:53:51;;;;;;;7.00;4.70;;;;;;;6.01;100.00;100378.72;5012539;28;20185;-69
2022/12/02 00:56:16;;;;;;;6.57;4.07;;;;;;;6.05;100.00;100401.41;5012122;28;20725;-70
2022/12/02 00:58:42;;;;;;;7.50;4.78;;;;;;;6.30;100.00;100426.56;5011569;28;20091;-70
2022/12/02 01:01:08;;;;;;;6.38;4.50;;;;;;;6.18;100.00;100404.72;5012513;28;20398;-70
2022/12/02 01:03:33;;;;;;;5.32;3.45;;;;;;;6.25;100.00;100424.06;5011011;28;20025;-70
2022/12/02 01:05:59;;;;;;;5.53;3.78;;;;;;;6.42;100.00;100411.38;5012096;28;20095;-70
2022/12/02 01:08:26;;;;;;;6.57;4.65;;;;;;;6.34;100.00;100418.97;5011717;28;20184;-69
2022/12/02 01:10:56;;;;;;;7.68;5.63;;;;;;;6.07;100.00;100388.78;5011194;28;20117;-70
2022/12/02 01:13:22;;;;;;;6.50;5.50;;;;;;;6.27;100.00;100419.84;5011002;28;20026;-70
2022/12/02 01:15:48;;;;;;;7.18;5.05;;;;;;;5.85;100.00;100377.91;5012040;28;20073;-70
2022/12/02 01:18:13;;;;;;;6.25;5.07;;;;;;;6.42;100.00;100421.47;5010880;28;20121;-70
2022/12/02 01:20:39;;;;;;;6.13;5.00;;;;;;;6.04;100.00;100393.84;5010387;28;20536;-69
2022/12/02 01:23:04;;;;;;;6.82;4.93;;;;;;;6.42;100.00;100427.34;5010488;28;20626;-70
2022/12/02 01:25:29;;;;;;;6.70;4.90;;;;;;;6.27;100.00;100416.47;5010509;28;20034;-70
2022/12/02 01:27:55;;;;;;;6.43;4.82;;;;;;;6.39;100.00;100409.69;5011913;28;20022;-70
2022/12/02 01:30:21;;;;;;;7.38;5.60;;;;;;;6.40;100.00;100416.41;5011448;28;20038;-70
2022/12/02 01:32:46;;;;;;;7.32;5.22;;;;;;;6.38;100.00;100419.81;5012352;28;20107;-70
2022/12/02 01:35:11;;;;;;;6.40;5.28;;;;;;;6.13;100.00;100364.38;5011544;28;20034;-70
2022/12/02 01:37:37;;;;;;;6.15;4.90;;;;;;;6.12;100.00;100377.81;5011378;28;20412;-71
2022/12/02 01:40:05;;;;;;;6.90;4.80;;;;;;;5.98;100.00;100349.28;5011593;28;20428;-70
2022/12/02 01:42:30;;;;;;;7.60;6.10;;;;;;;6.34;100.00;100424.00;5010900;28;20026;-69
2022/12/02 01:44:56;;;;;;;8.50;5.80;;;;;;;5.90;100.00;100362.78;5011690;28;20460;-69
2022/12/02 01:47:22;;;;;;;7.57;6.10;;;;;;;6.26;100.00;100423.19;5011773;28;20041;-70
2022/12/02 01:49:47;;;;;;;10.30;6.32;;;;;;;6.34;100.00;100411.38;5012053;28;20108;-70
2022/12/02 01:52:13;;;;;;;9.15;6.70;;;;;;;6.27;100.00;100409.75;5011379;28;20041;-70
2022/12/02 01:54:38;;;;;;;8.05;6.30;;;;;;;6.37;100.00;100426.53;5010870;28;20468;-70
2022/12/02 01:57:09;;;;;;;8.38;6.38;;;;;;;6.12;100.00;100415.69;5010406;28;20057;-70
2022/12/02 01:59:34;;;;;;;8.37;6.47;;;;;;;5.99;100.00;100371.16;5011502;28;20112;-70
2022/12/02 02:02:00;;;;;;;9.90;6.80;;;;;;;6.22;100.00;100368.53;5011588;28;20116;-70
2022/12/02 02:04:25;;;;;;;10.70;7.47;;;;;;;6.24;100.00;100419.03;5010947;28;20393;-70
2022/12/02 02:06:51;;;;;;;8.40;6.82;;;;;;;6.39;100.00;100414.75;5011208;28;20120;-70
2022/12/02 02:09:16;;;;;;;11.15;5.85;;;;;;;6.28;100.00;100418.97;5010707;28;20034;-70
2022/12/02 02:11:42;;;;;;;7.03;5.60;;;;;;;6.09;100.00;100379.53;5011229;28;20474;-70
2022/12/02 02:14:11;;;;;;;9.25;6.20;;;;;;;6.03;100.00;100367.78;5010155;28;20036;-70
2022/12/02 02:16:38;;;;;;;8.73;6.45;;;;;;;5.82;100.00;100331.66;5009647;28;20121;-69
2022/12/02 02:19:08;;;;;;;9.15;6.30;;;;;;;6.38;100.00;100413.06;5010745;28;20099;-70
2022/12/02 02:21:41;;;;;;;11.10;8.25;;;;;;;5.91;100.00;100319.88;5010565;28;20072;-70
2022/12/02 02:24:06;;;;;;;11.65;8.43;;;;;;;6.09;100.00;100351.75;5011065;28;20058;-70
2022/12/02 02:26:32;;;;;;;11.98;8.05;;;;;;;6.13;100.00;100358.47;5011350;28;20397;-69
2022/12/02 02:28:58;;;;;;;9.38;7.68;;;;;;;5.95;100.00;100321.53;5011106;28;20413;-70
2022/12/02 02:31:23;;;;;;;11.18;8.38;;;;;;;6.19;100.00;100360.13;5010502;28;20030;-70
2022/12/02 02:33:49;;;;;;;11.43;8.73;;;;;;;6.12;100.00;100355.09;5009516;28;20057;-70
2022/12/02 02:36:14;;;;;;;9.07;6.85;;;;;;;6.11;100.00;100363.53;5010828;28;20688;-70
2022/12/02 02:38:40;;;;;;;9.68;7.10;;;;;;;6.39;100.00;100417.28;5010632;28;20472;-70
2022/12/02 02:41:06;;;;;;;7.75;5.90;;;;;;;6.20;100.00;100410.59;4997336;28;20107;-70
2022/12/02 02:43:34;;;;;;;7.32;5.63;;;;;;;6.07;100.00;100361.03;5000099;28;20053;-70
2022/12/02 02:46:00;;;;;;;7.53;5.53;;;;;;;6.05;100.00;100418.22;4989678;28;20104;-70
2022/12/02 02:48:27;;;;;;;6.95;4.97;;;;;;;6.04;100.00;100366.91;4991546;28;20038;-69
2022/12/02 02:50:53;;;;;;;7.22;5.82;;;;;;;5.95;100.00;100366.09;4999958;28;20070;-69
2022/12/02 02:53:21;;;;;;;6.47;4.90;;;;;;;6.36;100.00;100418.97;5010856;28;20026;-70
2022/12/02 02:55:47;;;;;;;7.15;5.65;;;;;;;5.69;100.00;100330.00;5010912;28;20034;-70
2022/12/02 02:58:12;;;;;;;8.82;5.55;;;;;;;6.07;100.00;100429.16;5010371;28;20034;-70
2022/12/02 03:00:41;;;;;;;9.27;6.50;;;;;;;6.10;100.00;100424.94;5011327;28;20684;-70
2022/12/02 03:03:09;;;;;;;4.97;3.58;;;;;;;5.72;100.00;100373.72;5008846;28;20080;-70
2022/12/02 03:05:35;;;;;;;3.58;2.67;;;;;;;6.09;100.00;100422.44;5010621;28;20034;-70
2022/12/02 03:08:00;;;;;;;2.78;1.92;;;;;;;5.87;100.00;100368.66;5010298;28;20077;-70
2022/12/02 03:10:26;;;;;;;2.22;1.67;;;;;;;6.12;100.00;100423.25;5008706;28;20095;-70
2022/12/02 03:12:52;;;;;;;1.90;1.40;;;;;;;6.01;100.00;100406.47;5009211;28;20045;-70
2022/12/02 03:15:20;;;;;;;1.60;1.23;;;;;;;6.10;100.00;100424.94;5009122;28;20040;-70
2022/12/02 03:17:46;;;;;;;2.17;1.30;;;;;;;5.79;100.00;100384.63;5008858;28;20539;-70
2022/12/02 03:20:12;;;;;;;1.60;1.10;;;;;;;6.04;100.00;100373.66;5010599;28;20033;-70
2022/12/02 03:22:37;;;;;;;1.33;1.02;;;;;;;6.12;100.00;100417.34;5009543;28;20026;-70
2022/12/02 03:25:04;;;;;;;1.92;1.45;;;;;;;6.13;100.00;100411.47;5005992;28;20034;-70
2022/12/02 03:27:29;;;;;;;3.05;2.00;;;;;;;5.91;100.00;100366.97;5009189;28;20049;-70
2022/12/02 03:29:55;;;;;;;3.42;1.95;;;;;;;5.80;100.00;100383.78;5008799;28;20033;-70
2022/12/02 03:32:20;;;;;;;2.75;1.55;;;;;;;6.07;100.00;100431.69;5009422;28;20045;-70
2022/12/02 03:34:46;;;;;;;2.72;1.40;;;;;;;6.05;100.00;100433.38;5008943;28;20461;-69
2022/12/02 03:37:12;;;;;;;2.00;1.33;;;;;;;6.03;100.00;100422.44;5009934;28;20033;-70
2022/12/02 03:39:37;;;;;;;2.22;1.40;;;;;;;5.80;100.00;100368.66;5010071;28;20118;-69
2022/12/02 03:42:03;;;;;;;2.05;1.38;;;;;;;6.24;100.00;100429.94;5010359;28;20057;-70
2022/12/02 03:44:29;;;;;;;2.13;1.45;;;;;;;6.17;100.00;100423.25;5010040;28;20070;-69
2022/12/02 03:46:54;;;;;;;2.35;1.50;;;;;;;6.21;100.00;100417.34;5009771;28;20407;-68
2022/12/02 03:49:20;;;;;;;2.40;1.45;;;;;;;6.28;100.00;100439.19;5007748;28;20030;-70
2022/12/02 03:51:46;;;;;;;2.05;1.58;;;;;;;6.07;100.00;100396.34;5009904;28;20557;-70
2022/12/02 03:54:12;;;;;;;1.85;1.50;;;;;;;6.18;100.00;100439.22;5010115;28;20452;-68
2022/12/02 03:56:39;;;;;;;1.85;0.80;;;;;;;5.76;100.00;100389.69;5010072;28;20088;-69
2022/12/02 03:59:06;;;;;;;1.23;0.82;;;;;;;5.71;100.00;100394.72;5010209;28;20033;-70
2022/12/02 04:01:31;;;;;;;2.38;1.00;;;;;;;5.99;100.00;100446.00;5010202;28;20033;-69
2022/12/02 04:03:57;;;;;;;1.42;0.90;;;;;;;5.84;100.00;100434.25;5025377;28;20032;-70
2022/12/02 04:06:22;;;;;;;1.45;0.80;;;;;;;5.57;100.00;100405.66;5013199;28;20061;-70
2022/12/02 04:08:48;;;;;;;1.63;0.80;;;;;;;5.55;100.00;100364.47;5013508;28;20037;-70
2022/12/02 04:11:13;;;;;;;1.42;1.00;;;;;;;5.62;100.00;100359.44;5013423;28;20084;-70
2022/12/02 04:13:39;;;;;;;1.52;0.95;;;;;;;6.22;100.00;100443.44;5013129;28;20440;-70
2022/12/02 04:16:05;;;;;;;1.75;0.77;;;;;;;6.20;100.00;100450.16;5013624;28;20412;-69
2022/12/02 04:18:30;;;;;;;1.30;0.80;;;;;;;5.98;100.00;100419.91;5013208;28;20408;-70
2022/12/02 04:20:55;;;;;;;1.55;1.08;;;;;;;5.91;100.00;100440.97;5012183;28;20385;-70
2022/12/02 04:23:21;;;;;;;2.30;1.08;;;;;;;5.99;100.00;100454.41;5011459;28;20036;-69
2022/12/02 04:25:47;;;;;;;1.48;0.88;;;;;;;6.07;100.00;100444.31;4993386;28;20031;-69
2022/12/02 04:28:12;;;;;;;1.38;0.90;;;;;;;5.65;100.00;100393.88;4993761;28;20034;-70
2022/12/02 04:30:37;;;;;;;2.65;1.08;;;;;;;6.17;100.00;100451.00;4994643;28;20029;-69
2022/12/02 04:33:03;;;;;;;2.92;2.35;;;;;;;5.80;100.00;100412.34;5012668;28;20037;-70
2022/12/02 04:35:28;;;;;;;5.47;3.67;;;;;;;5.66;100.00;100416.59;5013155;28;20034;-69
2022/12/02 04:37:54;;;;;;;6.13;2.15;;;;;;;8.28;100.00;100436.06;5012757;28;20048;-69
2022/12/02 04:40:21;;;;;;;5.22;3.78;;;;;;;6.43;100.00;100461.03;5013039;28;20111;-69
2022/12/02 04:42:46;;;;;;;3.78;2.72;;;;;;;6.10;100.00;100474.59;5010299;28;20034;-72
2022/12/02 04:45:12;;;;;;;2.72;1.92;;;;;;;5.93;100.00;100451.91;5013063;28;20014;-72
2022/12/02 04:47:39;;;;;;;2.10;1.25;;;;;;;6.21;100.00;100470.34;5012449;28;20061;-70
2022/12/02 04:50:06;;;;;;;2.88;1.10;;;;;;;6.23;100.00;100466.13;5011667;28;20037;-71
2022/12/02 04:52:31;;;;;;;1.67;1.02;;;;;;;6.30;100.00;100485.47;5011723;28;20088;-70
2022/12/02 04:54:56;;;;;;;4.57;0.90;;;;;;;6.07;100.00;100477.94;5011621;28;20068;-71
2022/12/02 04:57:22;;;;;;;2.60;1.23;;;;;;;5.52;100.00;100394.75;5012612;28;20541;-71
2022/12/02 04:59:47;;;;;;;2.08;1.17;;;;;;;6.25;100.00;100482.13;5011795;28;20116;-72
2022/12/02 05:02:12;;;;;;;3.40;1.75;;;;;;;6.22;100.00;100499.78;5010229;28;20037;-69
2022/12/02 05:04:38;;;;;;;2.75;1.67;;;;;;;6.27;100.00;100477.91;5003862;28;20027;-72
2022/12/02 05:07:03;;;;;;;2.78;1.80;;;;;;;5.81;100.00;100443.47;4991085;28;20030;-70
2022/12/02 05:09:29;;;;;;;3.95;1.80;;;;;;;6.33;100.00;100484.63;4992963;28;20495;-70
2022/12/02 05:11:54;;;;;;;3.53;2.40;;;;;;;5.86;100.00;100439.31;4992835;28;20723;-70
2022/12/02 05:14:19;;;;;;;4.78;2.88;;;;;;;5.93;100.00;100434.25;4992698;28;20037;-69
2022/12/02 05:16:45;;;;;;;5.47;3.80;;;;;;;6.34;100.00;100497.22;4989744;28;20045;-70
2022/12/02 05:19:10;;;;;;;5.10;3.67;;;;;;;5.90;100.00;100446.84;4992342;28;20104;-70
2022/12/02 05:21:35;;;;;;;4.72;3.38;;;;;;;6.13;100.00;100494.75;4991154;28;20493;-70
2022/12/02 05:24:01;;;;;;;4.82;3.65;;;;;;;5.96;100.00;100448.53;4992916;28;20124;-71
2022/12/02 05:26:26;;;;;;;6.50;4.07;;;;;;;6.29;100.00;100493.88;4992536;28;20358;-71
2022/12/02 05:28:52;;;;;;;9.15;6.45;;;;;;;6.31;100.00;100488.81;4991717;28;20102;-70
2022/12/02 05:31:17;;;;;;;12.48;9.00;;;;;;;6.18;100.00;100477.91;4991416;28;20072;-71
2022/12/02 05:33:42;;;;;;;14.43;10.65;;;;;;;6.43;100.00;100498.91;4993058;28;20030;-71
2022/12/02 05:36:11;;;;;;;22.10;16.30;;;;;;;6.21;100.00;100505.69;4996684;28;20036;-71
2022/12/02 05:38:38;;;;;;;22.27;17.42;;;;;;;6.13;100.00;100499.81;5011071;28;20131;-70
2022/12/02 05:41:03;;;;;;;12.07;9.10;;;;;;;6.05;100.00;100501.50;5011569;28;20046;-70
2022/12/02 05:43:35;;;;;;;7.65;6.30;;;;;;;6.16;100.00;100521.69;5011861;28;20030;-70
2022/12/02 05:46:09;;;;;;;5.97;4.75;;;;;;;6.07;100.00;100520.84;5012360;28;20026;-70
2022/12/02 05:48:34;;;;;;;6.68;5.05;;;;;;;6.24;100.00;100502.31;5012189;28;20380;-70
2022/12/02 05:51:00;;;;;;;4.85;4.00;;;;;;;5.85;100.00;100471.25;5010274;28;20105;-70
2022/12/02 05:53:27;;;;;;;6.25;4.93;;;;;;;6.39;100.00;100527.53;5011632;28;20026;-70
2022/12/02 05:55:54;;;;;;;6.18;5.18;;;;;;;5.98;100.00;100469.56;5011785;28;20044;-71
2022/12/02 05:58:20;;;;;;;5.38;4.60;;;;;;;6.24;100.00;100522.50;5010243;28;20076;-70
2022/12/02 06:00:57;;;;;;;4.45;3.72;;;;;;;6.22;100.00;100473.72;5011524;28;20488;-71
2022/12/02 06:03:24;;;;;;;3.25;2.95;;;;;;;6.49;100.00;100549.38;5011645;28;20051;-71
2022/12/02 06:05:52;;;;;;;3.50;3.20;;;;;;;6.06;100.00;100508.25;5011464;28;20038;-70
2022/12/02 06:08:31;;;;;;;4.30;3.40;;;;;;;6.26;100.00;100536.78;5011015;28;20060;-70
2022/12/02 06:11:03;;;;;;;6.22;5.15;;;;;;;6.40;100.00;100539.31;5011229;28;20509;-70
2022/12/02 06:13:34;;;;;;;5.90;4.25;;;;;;;6.55;100.00;100546.84;5009969;28;20488;-70
2022/12/02 06:16:00;;;;;;;6.15;5.45;;;;;;;6.37;100.00;100546.88;5009371;28;20042;-70
2022/12/02 06:18:32;;;;;;;10.63;7.95;;;;;;;6.31;100.00;100536.78;5010686;28;20029;-69
2022/12/02 06:21:01;;;;;;;8.77;6.45;;;;;;;6.00;100.00;100495.63;5011340;28;20030;-71
2022/12/02 06:23:30;;;;;;;11.63;8.98;;;;;;;6.32;100.00;100546.88;5009154;28;20121;-68
2022/12/02 06:25:56;;;;;;;10.23;9.02;;;;;;;6.46;100.00;100555.28;5011086;28;20041;-69
2022/12/02 06:28:29;;;;;;;9.32;7.13;;;;;;;6.22;100.00;100540.16;5010291;28;20072;-68
2022/12/02 06:30:58;;;;;;;7.60;6.00;;;;;;;5.92;100.00;100504.88;5010751;28;20030;-69
2022/12/02 06:33:30;;;;;;;6.72;5.60;;;;;;;6.06;100.00;100509.06;5010877;28;20058;-69
2022/12/02 06:35:57;;;;;;;7.28;5.03;;;;;;;6.59;100.00;100562.00;5010173;28;20484;-68
2022/12/02 06:38:29;;;;;;;7.35;5.07;;;;;;;6.32;100.00;100518.28;5010354;28;20489;-68
2022/12/02 06:40:56;;;;;;;6.75;4.82;;;;;;;5.85;100.00;100480.50;5010365;28;20041;-69
2022/12/02 06:43:28;;;;;;;8.00;5.63;;;;;;;6.66;100.00;100545.97;5010332;28;20091;-68
2022/12/02 06:45:54;;;;;;;8.50;6.45;;;;;;;6.22;100.00;100530.06;5010866;28;20064;-69
2022/12/02 06:48:25;;;;;;;8.15;6.07;;;;;;;6.68;100.00;100574.59;5010762;28;20026;-70
2022/12/02 06:50:51;;;;;;;13.32;9.95;;;;;;;6.16;100.00;100519.97;5009517;28;20036;-70
2022/12/02 06:53:38;;;;;;;10.23;8.07;;;;;;;6.69;100.00;100583.88;5009216;28;20125;-70
2022/12/02 06:56:09;;;;;;;11.10;8.45;;;;;;;6.49;100.00;100577.16;5010993;28;20037;-70
2022/12/02 06:58:54;;;;;;;16.30;12.50;;;;;;;6.77;100.00;100578.78;5009218;28;20464;-69
2022/12/02 07:01:29;;;;;;;16.80;12.93;;;;;;;6.74;100.00;100584.69;5004149;28;20463;-70
2022/12/02 07:04:07;;;;;;;15.23;12.05;;;;;;;6.77;100.00;100591.41;5004533;28;20040;-70
2022/12/02 07:06:36;;;;;;;22.65;15.13;;;;;;;6.81;100.00;100576.22;5004498;28;20040;-70
2022/12/02 07:09:14;;;;;;;24.67;17.70;;;;;;;6.60;100.00;100538.41;5008978;28;20036;-70
2022/12/02 07:11:49;;;;;;;23.35;16.63;;;;;;;6.68;100.00;100541.75;4991154;28;20068;-70
2022/12/02 07:14:40;;;;;;;36.55;22.23;;;;;;;6.81;100.00;100583.81;5006337;28;20061;-70
2022/12/02 07:17:31;;;;;;;17.48;13.77;;;;;;;6.62;100.00;100592.28;4982536;28;20069;-71
2022/12/02 07:20:01;;;;;;;21.15;14.02;;;;;;;6.65;100.00;100587.25;5009794;28;20057;-71
2022/12/02 07:22:36;;;;;;;32.30;21.02;;;;;;;6.52;100.00;100537.59;5010585;28;20029;-71
2022/12/02 07:25:10;;;;;;;20.67;14.25;;;;;;;6.88;100.00;100589.69;5010736;28;20712;-71
2022/12/02 07:27:39;;;;;;;11.65;8.70;;;;;;;6.52;100.00;100536.72;5009928;28;20447;-70
2022/12/02 07:30:29;;;;;;;13.52;11.25;;;;;;;6.86;100.00;100592.22;5009805;28;20037;-71
2022/12/02 07:32:55;;;;;;;19.98;16.67;;;;;;;6.38;100.00;100549.41;5010305;28;20093;-70
2022/12/02 07:35:21;;;;;;;16.48;13.80;;;;;;;6.84;100.00;100596.44;5009777;28;20026;-70
2022/12/02 07:37:47;;;;;;;13.65;11.65;;;;;;;6.81;100.00;100588.03;5025387;28;20040;-70
2022/12/02 07:40:13;;;;;;;9.82;8.10;;;;;;;6.31;100.00;100537.66;5010703;28;20369;-71
2022/12/02 07:42:39;;;;;;;9.48;7.88;;;;;;;6.65;100.00;100564.50;5012433;28;20030;-71
2022/12/02 07:45:05;;;;;;;12.25;10.07;;;;;;;6.45;100.00;100514.88;5002124;28;20552;-69
2022/12/02 07:47:31;;;;;;;14.68;10.80;;;;;;;6.85;100.00;100613.28;5012761;28;20500;-71
2022/12/02 07:49:57;;;;;;;18.13;12.43;;;;;;;6.51;100.00;100565.38;5013538;28;20061;-71
2022/12/02 07:52:23;;;;;;;21.70;15.70;;;;;;;6.67;100.00;100618.41;5013739;28;20112;-70
2022/12/02 07:54:49;;;;;;;19.02;14.48;;;;;;;6.44;100.00;100584.75;5012820;28;20484;-70
2022/12/02 07:57:14;;;;;;;14.65;11.82;;;;;;;6.59;100.00;100604.09;5012140;28;20034;-71
2022/12/02 07:59:39;;;;;;;21.35;14.57;;;;;;;6.63;100.00;100560.31;5006045;28;20026;-71
2022/12/02 08:02:05;;;;;;;20.35;14.80;;;;;;;6.80;100.00;100571.19;5001416;28;20382;-70
2022/12/02 08:04:30;;;;;;;15.45;11.45;;;;;;;6.73;100.00;100575.44;5007263;28;20053;-70
2022/12/02 08:06:56;;;;;;;16.52;10.82;;;;;;;6.85;100.00;100610.75;5010945;28;20475;-70
2022/12/02 08:09:21;;;;;;;14.00;11.93;;;;;;;6.96;100.00;100603.13;5013325;28;20390;-69
2022/12/02 08:11:46;;;;;;;17.83;14.50;;;;;;;6.76;100.00;100577.09;5003179;28;20033;-70
2022/12/02 08:14:12;;;;;;;19.65;14.93;;;;;;;6.83;100.00;100574.53;4993473;28;20038;-70
2022/12/02 08:16:37;;;;;;;24.38;19.80;;;;;;;6.62;100.00;100563.66;5004565;28;20084;-71
2022/12/02 08:19:03;;;;;;;25.23;21.27;;;;;;;6.93;100.00;100614.09;5007593;28;20828;-70
2022/12/02 08:21:31;;;;;;;22.70;19.45;;;;;;;6.69;100.00;100576.28;4991965;28;20509;-71
2022/12/02 08:23:58;;;;;;;24.13;19.52;;;;;;;6.89;100.00;100591.38;4992183;28;20064;-71
2022/12/02 08:26:23;;;;;;;23.23;19.35;;;;;;;7.15;100.00;100626.69;4993526;28;20034;-70
2022/12/02 08:28:49;;;;;;;32.63;25.00;;;;;;;6.99;100.00;100600.63;4993116;28;20036;-70
2022/12/02 08:31:14;;;;;;;29.75;23.50;;;;;;;7.16;100.00;100625.81;4993353;28;20464;-72
2022/12/02 08:33:40;;;;;;;39.03;31.83;;;;;;;6.84;100.00;100591.38;4993843;28;20058;-70
2022/12/02 08:36:05;;;;;;;19.98;17.17;;;;;;;6.90;100.00;100630.97;4992680;28;20142;-70
2022/12/02 08:38:31;;;;;;;18.15;14.07;;;;;;;6.71;100.00;100634.38;4993082;28;20501;-70
2022/12/02 08:40:56;;;;;;;15.45;12.45;;;;;;;7.01;100.00;100632.59;5000121;28;20080;-70
2022/12/02 08:43:22;;;;;;;24.58;18.75;;;;;;;6.77;100.00;100582.13;5011693;28;20037;-69
2022/12/02 08:45:47;;;;;;;20.10;14.52;;;;;;;6.99;100.00;100629.25;5010640;28;20091;-69
2022/12/02 08:48:13;;;;;;;17.65;12.60;;;;;;;6.78;100.00;100588.03;5011386;28;20080;-69
2022/12/02 08:50:38;;;;;;;17.83;13.35;;;;;;;7.11;100.00;100630.06;5012092;28;20424;-71
2022/12/02 08:53:04;;;;;;;18.13;13.45;;;;;;;6.99;100.00;100611.53;5012228;28;20033;-71
2022/12/02 08:55:29;;;;;;;19.08;13.98;;;;;;;7.16;100.00;100633.41;5012807;28;20041;-70
2022/12/02 08:57:55;;;;;;;16.60;14.73;;;;;;;7.27;100.00;100632.50;5009439;28;20046;-70
2022/12/02 09:00:21;;;;;;;20.50;17.63;;;;;;;7.22;100.00;100611.47;4993404;28;20038;-71
2022/12/02 09:02:47;;;;;;;23.00;17.58;;;;;;;6.89;100.00;100576.22;4993247;28;20117;-69
2022/12/02 09:05:12;;;;;;;20.95;16.73;;;;;;;7.18;100.00;100619.91;4992040;28;20125;-68
2022/12/02 09:07:38;;;;;;;19.77;15.55;;;;;;;6.91;100.00;100620.03;4992517;28;20085;-68
2022/12/02 09:10:05;;;;;;;19.20;15.27;;;;;;;6.92;100.00;100581.25;4992411;28;20041;-69
2022/12/02 09:12:31;;;;;;;13.38;11.20;;;;;;;7.22;100.00;100628.31;5006036;28;20029;-69
2022/12/02 09:14:56;;;;;;;20.65;17.05;;;;;;;7.07;100.00;100598.06;5026319;28;20065;-67
2022/12/02 09:17:22;;;;;;;18.60;15.13;;;;;;;7.21;100.00;100624.94;5008900;28;20399;-68
2022/12/02 09:19:47;;;;;;;18.60;15.32;;;;;;;6.93;100.00;100588.81;5012134;28;20412;-67
2022/12/02 09:22:13;;;;;;;16.58;13.40;;;;;;;7.15;100.00;100607.28;5010640;28;20084;-67
2022/12/02 09:24:38;;;;;;;13.40;10.90;;;;;;;6.67;100.00;100561.97;5011617;28;20427;-68
2022/12/02 09:27:03;;;;;;;25.48;18.90;;;;;;;7.25;100.00;100621.56;5011273;28;20038;-67
2022/12/02 09:29:29;;;;;;;16.02;14.00;;;;;;;7.00;100.00;100584.59;5011444;28;20117;-68
2022/12/02 09:31:54;;;;;;;16.60;14.00;;;;;;;7.07;100.00;100575.31;5009706;28;20096;-69
2022/12/02 09:34:19;;;;;;;13.60;10.93;;;;;;;7.50;100.00;100571.69;5011460;28;20068;-70
2022/12/02 09:36:45;;;;;;;13.60;10.20;;;;;;;7.69;100.00;100618.81;5026359;28;20107;-68
2022/12/02 09:39:10;;;;;;;14.23;10.57;;;;;;;7.49;100.00;100623.13;5010617;28;20467;-67
2022/12/02 09:41:37;;;;;;;12.68;9.85;;;;;;;7.50;100.00;100607.97;5011011;28;20026;-67
2022/12/02 09:44:03;;;;;;;11.63;9.93;;;;;;;7.11;100.00;100575.25;5010076;28;20030;-68
2022/12/02 09:46:30;;;;;;;12.48;9.95;;;;;;;7.34;100.00;100572.63;5009132;28;20492;-68
2022/12/02 09:48:56;;;;;;;22.52;20.13;;;;;;;7.52;100.00;100623.13;5008403;28;20569;-69
2022/12/02 09:51:21;;;;;;;15.65;14.02;;;;;;;7.41;100.00;100564.16;5010822;28;20033;-67
2022/12/02 09:53:47;;;;;;;15.80;12.20;;;;;;;7.84;100.00;100611.94;5010750;28;20025;-69
2022/12/02 09:56:19;;;;;;;12.82;11.45;;;;;;;7.41;100.00;100608.00;5010353;28;20092;-69
2022/12/02 09:58:47;;;;;;;11.15;9.55;;;;;;;7.61;100.00;100612.94;5009585;28;20030;-70
2022/12/02 10:01:14;;;;;;;11.23;8.40;;;;;;;7.56;100.00;100615.53;5011519;28;20042;-70
2022/12/02 10:03:41;;;;;;;13.70;8.95;;;;;;;8.33;100.00;100594.72;5009492;28;20040;-70
2022/12/02 10:06:24;;;;;;;9.82;7.75;;;;;;;7.54;100.00;100617.22;5002025;28;20044;-70
2022/12/02 10:08:51;;;;;;;9.45;6.57;;;;;;;7.60;100.00;100579.25;5008346;28;20034;-68
2022/12/02 10:11:23;;;;;;;10.70;8.43;;;;;;;7.44;100.00;100581.84;5009273;28;20080;-68
2022/12/02 10:13:50;;;;;;;22.33;14.70;;;;;;;7.25;100.00;100593.75;5009928;28;20097;-68
2022/12/02 10:16:15;;;;;;;14.20;10.35;;;;;;;7.53;100.00;100625.66;5008810;28;20033;-69
2022/12/02 10:18:41;;;;;;;12.02;9.75;;;;;;;7.56;100.00;100623.13;5006906;28;20056;-68
2022/12/02 10:21:07;;;;;;;19.92;14.38;;;;;;;7.31;100.00;100580.25;5009171;28;20088;-68
2022/12/02 10:23:52;;;;;;;23.42;18.65;;;;;;;7.19;100.00;100586.19;5009829;28;20030;-67
2022/12/02 10:26:17;;;;;;;27.48;21.35;;;;;;;7.39;100.00;100619.00;5009919;28;20026;-68
2022/12/02 10:29:01;;;;;;;37.88;31.98;;;;;;;7.37;100.00;100623.22;5008021;28;20029;-68
2022/12/02 10:31:27;;;;;;;25.80;21.27;;;;;;;7.44;100.00;100629.91;5009476;28;20030;-68
2022/12/02 10:33:52;;;;;;;31.40;25.80;;;;;;;7.64;100.00;100636.56;5008114;28;20037;-68
2022/12/02 10:36:39;;;;;;;42.80;30.80;;;;;;;7.14;100.00;100595.50;5008137;28;20104;-68
2022/12/02 10:39:19;;;;;;;17.20;14.02;;;;;;;7.20;100.00;100637.59;5010286;28;20073;-68
2022/12/02 10:41:46;;;;;;;27.02;20.13;;;;;;;7.26;100.00;100587.00;5010377;28;20030;-68
2022/12/02 10:44:19;;;;;;;21.23;17.77;;;;;;;7.66;100.00;100634.88;5010723;28;20030;-68
2022/12/02 10:46:46;;;;;;;14.10;11.90;;;;;;;7.59;100.00;100637.41;5009329;28;20026;-67
2022/12/02 10:49:22;;;;;;;15.23;12.75;;;;;;;7.22;100.00;100570.16;5010472;28;20033;-68
2022/12/02 10:51:47;;;;;;;18.00;14.18;;;;;;;7.49;100.00;100595.31;5010194;28;20037;-68
2022/12/02 10:54:22;;;;;;;12.35;10.95;;;;;;;7.47;100.00;100575.09;5010114;28;20042;-68
2022/12/02 10:56:48;;;;;;;11.23;9.52;;;;;;;6.96;100.00;100522.25;5009638;28;20508;-68
2022/12/02 10:59:15;;;;;;;18.05;14.70;;;;;;;7.57;100.00;100593.56;5008645;28;20046;-68
2022/12/02 11:01:42;;;;;;;13.45;11.43;;;;;;;7.89;100.00;100592.53;5009976;28;20048;-66
2022/12/02 11:04:11;;;;;;;18.65;14.90;;;;;;;7.85;100.00;100597.59;5009942;28;20037;-67
2022/12/02 11:06:36;;;;;;;19.70;15.85;;;;;;;7.78;100.00;100575.75;4658589;28;9999952;-67
2022/12/02 11:09:02;;;;;;;27.33;21.92;;;;;;;7.55;100.00;100554.78;5004397;28;20087;-68
2022/12/02 11:11:28;;;;;;;25.23;21.55;;;;;;;7.91;100.00;100597.56;5005832;28;20412;-68
2022/12/02 11:13:56;;;;;;;16.67;14.88;;;;;;;7.71;100.00;100541.19;5007509;28;20049;-68
2022/12/02 11:16:27;;;;;;;11.57;9.50;;;;;;;7.39;100.00;100603.81;5010952;28;20026;-67
2022/12/02 11:19:08;;;;;;;13.70;10.32;;;;;;;7.70;100.00;100537.84;5009753;28;20547;-68
2022/12/02 11:21:37;;;;;;;12.23;10.35;;;;;;;8.06;100.00;100583.97;5006017;28;20039;-66
2022/12/02 11:24:21;;;;;;;11.55;8.13;;;;;;;7.70;100.00;100590.13;4996602;28;20038;-68